Trout Lake, MI (49793)

7:46 AM EDT on August 04, 2015 (GMT -0400)
MesoWest | | Change Station
CLOSE
Current Station
Personal Weather Station
Location: Rudyard, MI
Elevation: 668 ft
Nearby Weather Stations

Elev 668 ft 46.19 °N, 84.56 °W | Updated 36 minutes ago

Overcast
Overcast
57 °F
Feels Like 57 °F
N
2
Wind Variable Wind from SW
Gusts 3.0 mph

Today
High -- | Low -- °F
--% Chance of Precip.
Yesterday
High -- | Low -- °F
Precip. -- in
6:25 AM 9:06 PM
Waning Gibbous, 78% visible
Pressure 29.84 in
Visibility 10.0 miles
Clouds Overcast 400 ft
Dew Point 57 °F
Humidity 100%
Rainfall in
Snow Depth Not available.
UV 0 out of 12
Pollen 6.30 out of 12
Air Quality Not available.
Flu Activity Not available.
METAR KERY 041135Z AUTO 29004KT 10SM OVC004 13/13 A2984 RMK AO2 T01320127

More Conditions Fewer Conditions

Pressure 29.84 in
Visibility 10.0 miles
Clouds Overcast 400 ft
Dew Point 57 °F
Humidity 100%
Rainfall in
Snow Depth Not available.
UV 0 out of 12
Pollen 6.30 out of 12
Air Quality Not available.
Flu Activity Not available.
METAR KERY 041135Z AUTO 29004KT 10SM OVC004 13/13 A2984 RMK AO2 T01320127

More Conditions Fewer Conditions

Nowcast | as of 6:00 am EDT on August 4, 2015

At 7 am...mostly cloudy. Isolated showers. Temperature 57. Light winds. At 9 am...mostly cloudy. Temperature 58. West winds 6 mph. At 11 am...mostly cloudy. Temperature 60. Northwest winds 9 mph. At 1 PM...mostly cloudy. Temperature 62. Northwest winds 12 mph.

×

10-Day Weather Forecast

×

Almanac

Astronomy

Aug. 04, 2015 Rise Set
Actual Time
Civil Twilight
Nautical Twilight
Astronomical Twilight
Moon
Length of Visible Light
Length of Day
Tomorrow will be .
, % of the Moon is Illuminated

Today's Extremes

State Highs State Lows

Community

WunderPhotos

Upload Photos

1,843,900 photos uploaded!

WunderBlogs® & News

Nearby

Air Quality

  Air Quality AQ Index Pollutant
Not available.

Snow Depth

Station Depth Elevation

Earthquake Activity

City Distance Mag. Time & Date
Minimum magnitude displayed is 2.5.

Coastal Water Temperatures

Place Temperature

Stations

Nearby Weather Stations

Station Location Temp. Windchill Dew Point Humidity Wind Precip. Elev Updated Type